sensor_id;sensor_type;location;lat;lon;timestamp;P1;durP1;ratioP1;P2;durP2;ratioP2
31808;SDS011;18379;48.208;-1.518;2022-07-10T00:01:45;43.50;;;40.83;;
31808;SDS011;18379;48.208;-1.518;2022-07-10T00:06:46;40.83;;;38.63;;
31808;SDS011;18379;48.208;-1.518;2022-07-10T00:11:47;42.90;;;40.40;;
31808;SDS011;18379;48.208;-1.518;2022-07-10T00:16:47;40.20;;;38.07;;
31808;SDS011;18379;48.208;-1.518;2022-07-10T00:21:48;44.40;;;41.67;;
31808;SDS011;18379;48.208;-1.518;2022-07-10T00:26:49;40.43;;;38.03;;
31808;SDS011;18379;48.208;-1.518;2022-07-10T00:31:50;41.07;;;38.67;;
31808;SDS011;18379;48.208;-1.518;2022-07-10T00:36:51;40.20;;;38.10;;
31808;SDS011;18379;48.208;-1.518;2022-07-10T00:41:51;40.33;;;38.23;;
31808;SDS011;18379;48.208;-1.518;2022-07-10T00:46:52;41.10;;;38.57;;
31808;SDS011;18379;48.208;-1.518;2022-07-10T00:51:53;40.93;;;38.60;;
31808;SDS011;18379;48.208;-1.518;2022-07-10T00:56:55;40.80;;;38.60;;
31808;SDS011;18379;48.208;-1.518;2022-07-10T01:01:56;40.97;;;38.77;;
31808;SDS011;18379;48.208;-1.518;2022-07-10T01:07:02;43.53;;;41.00;;
31808;SDS011;18379;48.208;-1.518;2022-07-10T01:12:03;42.90;;;40.20;;
31808;SDS011;18379;48.208;-1.518;2022-07-10T01:17:06;42.70;;;40.20;;
31808;SDS011;18379;48.208;-1.518;2022-07-10T01:22:09;46.13;;;43.27;;
31808;SDS011;18379;48.208;-1.518;2022-07-10T01:27:10;46.23;;;43.10;;
31808;SDS011;18379;48.208;-1.518;2022-07-10T01:32:11;44.73;;;41.90;;
31808;SDS011;18379;48.208;-1.518;2022-07-10T01:37:12;43.17;;;40.63;;
31808;SDS011;18379;48.208;-1.518;2022-07-10T01:42:13;42.90;;;40.40;;
31808;SDS011;18379;48.208;-1.518;2022-07-10T01:47:14;44.87;;;41.93;;
31808;SDS011;18379;48.208;-1.518;2022-07-10T01:52:14;42.53;;;40.00;;
31808;SDS011;18379;48.208;-1.518;2022-07-10T01:57:15;43.57;;;40.93;;
31808;SDS011;18379;48.208;-1.518;2022-07-10T02:02:16;41.30;;;39.00;;
31808;SDS011;18379;48.208;-1.518;2022-07-10T02:07:17;41.90;;;39.40;;
31808;SDS011;18379;48.208;-1.518;2022-07-10T02:12:18;39.97;;;37.87;;
31808;SDS011;18379;48.208;-1.518;2022-07-10T02:17:19;39.93;;;37.63;;
31808;SDS011;18379;48.208;-1.518;2022-07-10T02:22:20;39.60;;;37.43;;
31808;SDS011;18379;48.208;-1.518;2022-07-10T02:27:24;41.17;;;38.87;;
31808;SDS011;18379;48.208;-1.518;2022-07-10T02:32:25;46.33;;;43.40;;
31808;SDS011;18379;48.208;-1.518;2022-07-10T02:37:27;42.60;;;40.00;;
31808;SDS011;18379;48.208;-1.518;2022-07-10T02:42:32;41.87;;;39.37;;
31808;SDS011;18379;48.208;-1.518;2022-07-10T02:47:33;40.50;;;38.20;;
31808;SDS011;18379;48.208;-1.518;2022-07-10T02:52:34;39.53;;;37.43;;
31808;SDS011;18379;48.208;-1.518;2022-07-10T02:57:35;40.10;;;37.80;;
31808;SDS011;18379;48.208;-1.518;2022-07-10T03:02:35;40.43;;;38.07;;
31808;SDS011;18379;48.208;-1.518;2022-07-10T03:07:36;40.50;;;38.03;;
31808;SDS011;18379;48.208;-1.518;2022-07-10T03:12:37;40.60;;;38.17;;
31808;SDS011;18379;48.208;-1.518;2022-07-10T03:17:38;40.07;;;37.83;;
31808;SDS011;18379;48.208;-1.518;2022-07-10T03:22:39;40.77;;;38.17;;
31808;SDS011;18379;48.208;-1.518;2022-07-10T03:27:40;43.17;;;40.53;;
31808;SDS011;18379;48.208;-1.518;2022-07-10T03:32:41;41.57;;;39.17;;
31808;SDS011;18379;48.208;-1.518;2022-07-10T03:37:42;41.70;;;39.10;;
31808;SDS011;18379;48.208;-1.518;2022-07-10T03:42:43;42.73;;;40.17;;
31808;SDS011;18379;48.208;-1.518;2022-07-10T03:47:43;41.17;;;38.77;;
31808;SDS011;18379;48.208;-1.518;2022-07-10T03:52:44;41.23;;;38.77;;
31808;SDS011;18379;48.208;-1.518;2022-07-10T03:57:46;41.90;;;39.47;;
31808;SDS011;18379;48.208;-1.518;2022-07-10T04:03:04;39.37;;;37.17;;
31808;SDS011;18379;48.208;-1.518;2022-07-10T04:08:06;38.77;;;36.67;;
31808;SDS011;18379;48.208;-1.518;2022-07-10T04:13:09;39.37;;;36.93;;
31808;SDS011;18379;48.208;-1.518;2022-07-10T04:18:10;40.27;;;37.97;;
31808;SDS011;18379;48.208;-1.518;2022-07-10T04:23:10;41.17;;;38.60;;
31808;SDS011;18379;48.208;-1.518;2022-07-10T04:28:11;40.47;;;37.80;;
31808;SDS011;18379;48.208;-1.518;2022-07-10T04:33:12;41.63;;;39.07;;
31808;SDS011;18379;48.208;-1.518;2022-07-10T04:38:13;40.93;;;38.53;;
31808;SDS011;18379;48.208;-1.518;2022-07-10T04:43:14;42.63;;;39.97;;
31808;SDS011;18379;48.208;-1.518;2022-07-10T04:48:14;41.27;;;38.87;;
31808;SDS011;18379;48.208;-1.518;2022-07-10T04:53:15;42.33;;;39.73;;
31808;SDS011;18379;48.208;-1.518;2022-07-10T04:58:16;41.03;;;38.60;;
31808;SDS011;18379;48.208;-1.518;2022-07-10T05:03:16;43.77;;;41.03;;
31808;SDS011;18379;48.208;-1.518;2022-07-10T05:08:17;41.30;;;38.70;;
31808;SDS011;18379;48.208;-1.518;2022-07-10T05:13:18;39.13;;;37.03;;
31808;SDS011;18379;48.208;-1.518;2022-07-10T05:18:19;42.70;;;40.07;;
31808;SDS011;18379;48.208;-1.518;2022-07-10T05:23:20;43.07;;;40.47;;
31808;SDS011;18379;48.208;-1.518;2022-07-10T05:28:21;41.30;;;38.83;;
31808;SDS011;18379;48.208;-1.518;2022-07-10T05:33:22;40.60;;;38.30;;
31808;SDS011;18379;48.208;-1.518;2022-07-10T05:38:22;42.20;;;39.63;;
31808;SDS011;18379;48.208;-1.518;2022-07-10T05:43:23;42.40;;;39.70;;
31808;SDS011;18379;48.208;-1.518;2022-07-10T05:48:24;41.47;;;39.07;;
31808;SDS011;18379;48.208;-1.518;2022-07-10T05:53:25;41.77;;;39.20;;
31808;SDS011;18379;48.208;-1.518;2022-07-10T05:58:26;40.97;;;38.40;;
31808;SDS011;18379;48.208;-1.518;2022-07-10T06:03:28;38.87;;;36.70;;
31808;SDS011;18379;48.208;-1.518;2022-07-10T06:08:28;39.67;;;37.47;;
31808;SDS011;18379;48.208;-1.518;2022-07-10T06:13:29;39.27;;;36.80;;
31808;SDS011;18379;48.208;-1.518;2022-07-10T06:18:33;41.90;;;39.23;;
31808;SDS011;18379;48.208;-1.518;2022-07-10T06:23:34;38.87;;;36.83;;
31808;SDS011;18379;48.208;-1.518;2022-07-10T06:28:35;38.97;;;36.87;;
31808;SDS011;18379;48.208;-1.518;2022-07-10T06:33:35;40.53;;;37.80;;
31808;SDS011;18379;48.208;-1.518;2022-07-10T06:38:37;39.27;;;37.27;;
31808;SDS011;18379;48.208;-1.518;2022-07-10T06:43:37;38.93;;;36.93;;
31808;SDS011;18379;48.208;-1.518;2022-07-10T06:48:38;39.80;;;37.63;;
31808;SDS011;18379;48.208;-1.518;2022-07-10T06:53:40;40.40;;;38.13;;
31808;SDS011;18379;48.208;-1.518;2022-07-10T06:58:41;45.43;;;42.63;;
31808;SDS011;18379;48.208;-1.518;2022-07-10T07:03:42;42.23;;;39.73;;
31808;SDS011;18379;48.208;-1.518;2022-07-10T07:08:42;44.03;;;41.30;;
31808;SDS011;18379;48.208;-1.518;2022-07-10T07:13:43;47.80;;;44.57;;
31808;SDS011;18379;48.208;-1.518;2022-07-10T07:18:44;49.37;;;46.00;;
31808;SDS011;18379;48.208;-1.518;2022-07-10T07:23:51;50.73;;;47.23;;
31808;SDS011;18379;48.208;-1.518;2022-07-10T07:28:52;49.80;;;46.47;;
31808;SDS011;18379;48.208;-1.518;2022-07-10T07:33:53;39.67;;;37.57;;
31808;SDS011;18379;48.208;-1.518;2022-07-10T07:38:54;42.10;;;39.70;;
31808;SDS011;18379;48.208;-1.518;2022-07-10T07:43:54;44.67;;;41.83;;
31808;SDS011;18379;48.208;-1.518;2022-07-10T07:48:55;45.13;;;42.33;;
31808;SDS011;18379;48.208;-1.518;2022-07-10T07:53:57;44.10;;;41.47;;
31808;SDS011;18379;48.208;-1.518;2022-07-10T07:58:58;40.30;;;38.00;;
31808;SDS011;18379;48.208;-1.518;2022-07-10T08:03:59;40.87;;;38.67;;
31808;SDS011;18379;48.208;-1.518;2022-07-10T08:09:00;40.03;;;38.00;;
31808;SDS011;18379;48.208;-1.518;2022-07-10T08:14:02;39.90;;;37.83;;
31808;SDS011;18379;48.208;-1.518;2022-07-10T08:19:03;40.60;;;38.40;;
31808;SDS011;18379;48.208;-1.518;2022-07-10T08:24:04;40.60;;;38.43;;
31808;SDS011;18379;48.208;-1.518;2022-07-10T08:29:05;40.90;;;38.77;;
31808;SDS011;18379;48.208;-1.518;2022-07-10T08:34:05;40.07;;;37.97;;
31808;SDS011;18379;48.208;-1.518;2022-07-10T08:39:06;40.40;;;38.20;;
31808;SDS011;18379;48.208;-1.518;2022-07-10T08:44:07;41.03;;;38.93;;
31808;SDS011;18379;48.208;-1.518;2022-07-10T08:49:08;42.50;;;40.20;;
31808;SDS011;18379;48.208;-1.518;2022-07-10T08:54:17;44.07;;;41.40;;
31808;SDS011;18379;48.208;-1.518;2022-07-10T08:59:18;43.73;;;41.33;;
31808;SDS011;18379;48.208;-1.518;2022-07-10T09:04:22;44.47;;;41.93;;
31808;SDS011;18379;48.208;-1.518;2022-07-10T09:09:23;45.13;;;42.30;;
31808;SDS011;18379;48.208;-1.518;2022-07-10T09:14:25;44.93;;;42.43;;
31808;SDS011;18379;48.208;-1.518;2022-07-10T09:19:32;42.40;;;40.20;;
31808;SDS011;18379;48.208;-1.518;2022-07-10T09:24:39;43.27;;;40.87;;
31808;SDS011;18379;48.208;-1.518;2022-07-10T09:29:51;45.70;;;43.10;;
31808;SDS011;18379;48.208;-1.518;2022-07-10T09:34:55;46.28;;;43.67;;
31808;SDS011;18379;48.208;-1.518;2022-07-10T09:40:17;46.33;;;43.83;;
31808;SDS011;18379;48.208;-1.518;2022-07-10T09:45:19;46.90;;;44.30;;
31808;SDS011;18379;48.208;-1.518;2022-07-10T09:55:32;44.88;;;42.35;;
31808;SDS011;18379;48.208;-1.518;2022-07-10T10:00:35;45.83;;;43.33;;
31808;SDS011;18379;48.208;-1.518;2022-07-10T10:05:58;45.03;;;42.63;;
31808;SDS011;18379;48.208;-1.518;2022-07-10T10:11:15;47.70;;;45.08;;
31808;SDS011;18379;48.208;-1.518;2022-07-10T10:16:20;48.17;;;45.47;;
31808;SDS011;18379;48.208;-1.518;2022-07-10T10:21:23;47.95;;;45.03;;
31808;SDS011;18379;48.208;-1.518;2022-07-10T10:26:24;49.03;;;46.20;;
31808;SDS011;18379;48.208;-1.518;2022-07-10T10:31:26;48.72;;;45.83;;
31808;SDS011;18379;48.208;-1.518;2022-07-10T10:41:51;48.75;;;45.97;;
31808;SDS011;18379;48.208;-1.518;2022-07-10T10:46:53;47.75;;;45.05;;
31808;SDS011;18379;48.208;-1.518;2022-07-10T10:52:09;48.45;;;45.55;;
31808;SDS011;18379;48.208;-1.518;2022-07-10T10:57:11;46.03;;;43.55;;
31808;SDS011;18379;48.208;-1.518;2022-07-10T11:02:25;47.97;;;45.28;;
31808;SDS011;18379;48.208;-1.518;2022-07-10T11:18:13;48.92;;;46.05;;
31808;SDS011;18379;48.208;-1.518;2022-07-10T11:23:29;48.22;;;45.47;;
31808;SDS011;18379;48.208;-1.518;2022-07-10T11:29:03;50.05;;;46.85;;
31808;SDS011;18379;48.208;-1.518;2022-07-10T11:34:07;47.60;;;44.95;;
31808;SDS011;18379;48.208;-1.518;2022-07-10T11:39:09;47.35;;;44.72;;
31808;SDS011;18379;48.208;-1.518;2022-07-10T11:44:13;47.90;;;45.22;;
31808;SDS011;18379;48.208;-1.518;2022-07-10T11:49:16;49.22;;;46.38;;
31808;SDS011;18379;48.208;-1.518;2022-07-10T11:54:17;49.38;;;46.58;;
31808;SDS011;18379;48.208;-1.518;2022-07-10T11:59:39;50.95;;;48.00;;
31808;SDS011;18379;48.208;-1.518;2022-07-10T12:04:40;47.78;;;45.08;;
31808;SDS011;18379;48.208;-1.518;2022-07-10T12:09:40;47.30;;;44.72;;
31808;SDS011;18379;48.208;-1.518;2022-07-10T12:14:42;47.17;;;44.55;;
31808;SDS011;18379;48.208;-1.518;2022-07-10T12:19:42;48.05;;;45.38;;
31808;SDS011;18379;48.208;-1.518;2022-07-10T12:24:43;48.33;;;45.63;;
31808;SDS011;18379;48.208;-1.518;2022-07-10T12:29:44;48.90;;;46.20;;
31808;SDS011;18379;48.208;-1.518;2022-07-10T12:35:14;49.60;;;46.78;;
31808;SDS011;18379;48.208;-1.518;2022-07-10T12:45:37;46.83;;;44.22;;
31808;SDS011;18379;48.208;-1.518;2022-07-10T12:50:39;46.72;;;44.20;;
31808;SDS011;18379;48.208;-1.518;2022-07-10T12:55:43;48.33;;;45.55;;
31808;SDS011;18379;48.208;-1.518;2022-07-10T13:00:44;48.97;;;46.22;;
31808;SDS011;18379;48.208;-1.518;2022-07-10T13:05:48;54.75;;;51.30;;
31808;SDS011;18379;48.208;-1.518;2022-07-10T13:10:49;49.97;;;47.00;;
31808;SDS011;18379;48.208;-1.518;2022-07-10T13:15:56;49.97;;;47.13;;
31808;SDS011;18379;48.208;-1.518;2022-07-10T13:20:58;47.95;;;45.17;;
31808;SDS011;18379;48.208;-1.518;2022-07-10T13:25:59;46.65;;;44.05;;
31808;SDS011;18379;48.208;-1.518;2022-07-10T13:31:01;46.47;;;43.97;;
31808;SDS011;18379;48.208;-1.518;2022-07-10T13:36:03;46.90;;;44.30;;
31808;SDS011;18379;48.208;-1.518;2022-07-10T13:41:04;46.78;;;44.00;;
31808;SDS011;18379;48.208;-1.518;2022-07-10T13:46:05;46.83;;;44.22;;
31808;SDS011;18379;48.208;-1.518;2022-07-10T13:51:06;46.97;;;44.38;;
31808;SDS011;18379;48.208;-1.518;2022-07-10T13:56:07;47.13;;;44.53;;
31808;SDS011;18379;48.208;-1.518;2022-07-10T14:01:08;47.40;;;44.63;;
31808;SDS011;18379;48.208;-1.518;2022-07-10T14:06:09;47.03;;;44.33;;
31808;SDS011;18379;48.208;-1.518;2022-07-10T14:11:10;46.97;;;44.20;;
31808;SDS011;18379;48.208;-1.518;2022-07-10T14:16:11;48.08;;;45.40;;
31808;SDS011;18379;48.208;-1.518;2022-07-10T14:21:12;48.00;;;45.15;;
31808;SDS011;18379;48.208;-1.518;2022-07-10T14:26:13;47.83;;;45.15;;
31808;SDS011;18379;48.208;-1.518;2022-07-10T14:31:14;48.10;;;45.30;;
31808;SDS011;18379;48.208;-1.518;2022-07-10T14:36:15;49.28;;;46.47;;
31808;SDS011;18379;48.208;-1.518;2022-07-10T14:41:15;48.67;;;45.88;;
31808;SDS011;18379;48.208;-1.518;2022-07-10T14:46:16;48.92;;;46.13;;
31808;SDS011;18379;48.208;-1.518;2022-07-10T14:51:17;48.78;;;45.97;;
31808;SDS011;18379;48.208;-1.518;2022-07-10T14:56:18;48.50;;;45.78;;
31808;SDS011;18379;48.208;-1.518;2022-07-10T15:01:22;48.30;;;45.53;;
31808;SDS011;18379;48.208;-1.518;2022-07-10T15:06:23;47.75;;;45.10;;
31808;SDS011;18379;48.208;-1.518;2022-07-10T15:11:23;48.30;;;45.35;;
31808;SDS011;18379;48.208;-1.518;2022-07-10T15:16:26;47.97;;;45.17;;
31808;SDS011;18379;48.208;-1.518;2022-07-10T15:21:27;46.88;;;44.28;;
31808;SDS011;18379;48.208;-1.518;2022-07-10T15:26:29;46.13;;;43.63;;
31808;SDS011;18379;48.208;-1.518;2022-07-10T15:31:30;45.85;;;43.35;;
31808;SDS011;18379;48.208;-1.518;2022-07-10T15:36:31;45.35;;;42.95;;
31808;SDS011;18379;48.208;-1.518;2022-07-10T15:41:34;45.95;;;43.45;;
31808;SDS011;18379;48.208;-1.518;2022-07-10T15:46:36;45.67;;;43.08;;
31808;SDS011;18379;48.208;-1.518;2022-07-10T15:51:37;46.13;;;43.53;;
31808;SDS011;18379;48.208;-1.518;2022-07-10T15:56:38;45.58;;;43.15;;
31808;SDS011;18379;48.208;-1.518;2022-07-10T16:01:39;45.85;;;43.25;;
31808;SDS011;18379;48.208;-1.518;2022-07-10T16:06:42;45.95;;;43.47;;
31808;SDS011;18379;48.208;-1.518;2022-07-10T16:11:43;47.70;;;44.97;;
31808;SDS011;18379;48.208;-1.518;2022-07-10T16:16:44;47.08;;;44.47;;
31808;SDS011;18379;48.208;-1.518;2022-07-10T16:21:45;49.15;;;46.03;;
31808;SDS011;18379;48.208;-1.518;2022-07-10T16:26:47;47.95;;;45.20;;
31808;SDS011;18379;48.208;-1.518;2022-07-10T16:31:48;48.28;;;45.55;;
31808;SDS011;18379;48.208;-1.518;2022-07-10T16:36:52;47.83;;;45.13;;
31808;SDS011;18379;48.208;-1.518;2022-07-10T16:41:55;47.38;;;44.63;;
31808;SDS011;18379;48.208;-1.518;2022-07-10T16:46:56;48.13;;;45.42;;
31808;SDS011;18379;48.208;-1.518;2022-07-10T16:51:57;47.75;;;45.05;;
31808;SDS011;18379;48.208;-1.518;2022-07-10T16:56:58;46.45;;;43.85;;
31808;SDS011;18379;48.208;-1.518;2022-07-10T17:01:59;45.60;;;43.20;;
31808;SDS011;18379;48.208;-1.518;2022-07-10T17:07:04;45.38;;;42.97;;
31808;SDS011;18379;48.208;-1.518;2022-07-10T17:12:08;45.60;;;43.10;;
31808;SDS011;18379;48.208;-1.518;2022-07-10T17:17:09;45.42;;;42.88;;
31808;SDS011;18379;48.208;-1.518;2022-07-10T17:22:10;45.58;;;43.15;;
31808;SDS011;18379;48.208;-1.518;2022-07-10T17:27:15;47.97;;;45.20;;
31808;SDS011;18379;48.208;-1.518;2022-07-10T17:32:16;49.10;;;46.30;;
31808;SDS011;18379;48.208;-1.518;2022-07-10T17:37:17;47.88;;;45.17;;
31808;SDS011;18379;48.208;-1.518;2022-07-10T17:42:19;48.33;;;45.58;;
31808;SDS011;18379;48.208;-1.518;2022-07-10T17:47:19;48.53;;;45.70;;
31808;SDS011;18379;48.208;-1.518;2022-07-10T17:52:24;48.17;;;45.42;;
31808;SDS011;18379;48.208;-1.518;2022-07-10T17:57:25;49.22;;;46.35;;
31808;SDS011;18379;48.208;-1.518;2022-07-10T18:02:26;47.60;;;44.90;;
31808;SDS011;18379;48.208;-1.518;2022-07-10T18:07:26;48.63;;;45.83;;
31808;SDS011;18379;48.208;-1.518;2022-07-10T18:12:28;47.90;;;44.92;;
31808;SDS011;18379;48.208;-1.518;2022-07-10T18:17:30;46.33;;;43.53;;
31808;SDS011;18379;48.208;-1.518;2022-07-10T18:22:31;45.78;;;43.28;;
31808;SDS011;18379;48.208;-1.518;2022-07-10T18:27:31;44.97;;;42.58;;
31808;SDS011;18379;48.208;-1.518;2022-07-10T18:32:35;46.53;;;43.83;;
31808;SDS011;18379;48.208;-1.518;2022-07-10T18:37:58;46.80;;;44.10;;
31808;SDS011;18379;48.208;-1.518;2022-07-10T18:43:00;47.38;;;44.75;;
31808;SDS011;18379;48.208;-1.518;2022-07-10T18:48:03;51.42;;;48.13;;
31808;SDS011;18379;48.208;-1.518;2022-07-10T18:53:06;47.15;;;44.38;;
31808;SDS011;18379;48.208;-1.518;2022-07-10T18:58:07;46.05;;;43.45;;
31808;SDS011;18379;48.208;-1.518;2022-07-10T19:03:09;46.17;;;43.53;;
31808;SDS011;18379;48.208;-1.518;2022-07-10T19:08:10;48.00;;;45.20;;
31808;SDS011;18379;48.208;-1.518;2022-07-10T19:13:11;47.90;;;45.17;;
31808;SDS011;18379;48.208;-1.518;2022-07-10T19:18:13;49.35;;;46.42;;
31808;SDS011;18379;48.208;-1.518;2022-07-10T19:23:14;47.88;;;45.17;;
31808;SDS011;18379;48.208;-1.518;2022-07-10T19:28:15;48.90;;;46.10;;
31808;SDS011;18379;48.208;-1.518;2022-07-10T19:33:17;47.70;;;45.00;;
31808;SDS011;18379;48.208;-1.518;2022-07-10T19:38:17;48.03;;;45.28;;
31808;SDS011;18379;48.208;-1.518;2022-07-10T19:43:21;48.78;;;45.88;;
31808;SDS011;18379;48.208;-1.518;2022-07-10T19:48:22;47.80;;;45.00;;
31808;SDS011;18379;48.208;-1.518;2022-07-10T19:53:23;48.28;;;45.40;;
31808;SDS011;18379;48.208;-1.518;2022-07-10T19:58:24;49.50;;;46.45;;
31808;SDS011;18379;48.208;-1.518;2022-07-10T20:03:25;49.38;;;46.47;;
31808;SDS011;18379;48.208;-1.518;2022-07-10T20:08:26;48.08;;;45.33;;
31808;SDS011;18379;48.208;-1.518;2022-07-10T20:13:26;45.88;;;43.38;;
31808;SDS011;18379;48.208;-1.518;2022-07-10T20:18:28;46.17;;;43.65;;
31808;SDS011;18379;48.208;-1.518;2022-07-10T20:23:29;45.97;;;43.47;;
31808;SDS011;18379;48.208;-1.518;2022-07-10T20:28:31;45.72;;;43.03;;
31808;SDS011;18379;48.208;-1.518;2022-07-10T20:33:31;44.97;;;42.38;;
31808;SDS011;18379;48.208;-1.518;2022-07-10T20:38:32;44.90;;;42.42;;
31808;SDS011;18379;48.208;-1.518;2022-07-10T20:43:36;45.00;;;42.40;;
31808;SDS011;18379;48.208;-1.518;2022-07-10T20:48:37;45.95;;;43.35;;
31808;SDS011;18379;48.208;-1.518;2022-07-10T20:53:38;45.67;;;42.73;;
31808;SDS011;18379;48.208;-1.518;2022-07-10T20:58:39;45.63;;;42.72;;
31808;SDS011;18379;48.208;-1.518;2022-07-10T21:03:39;48.63;;;45.67;;
31808;SDS011;18379;48.208;-1.518;2022-07-10T21:08:40;46.90;;;44.03;;
31808;SDS011;18379;48.208;-1.518;2022-07-10T21:13:43;49.33;;;46.17;;
31808;SDS011;18379;48.208;-1.518;2022-07-10T21:18:44;47.10;;;44.30;;
31808;SDS011;18379;48.208;-1.518;2022-07-10T21:23:45;47.60;;;44.80;;
31808;SDS011;18379;48.208;-1.518;2022-07-10T21:28:46;50.43;;;47.20;;
31808;SDS011;18379;48.208;-1.518;2022-07-10T21:33:47;47.50;;;44.60;;
31808;SDS011;18379;48.208;-1.518;2022-07-10T21:38:47;47.57;;;44.70;;
31808;SDS011;18379;48.208;-1.518;2022-07-10T21:43:48;47.83;;;44.73;;
31808;SDS011;18379;48.208;-1.518;2022-07-10T21:48:49;47.27;;;44.43;;
31808;SDS011;18379;48.208;-1.518;2022-07-10T21:53:50;47.87;;;44.87;;
31808;SDS011;18379;48.208;-1.518;2022-07-10T21:58:50;47.80;;;44.70;;
31808;SDS011;18379;48.208;-1.518;2022-07-10T22:03:51;47.23;;;44.23;;
31808;SDS011;18379;48.208;-1.518;2022-07-10T22:08:53;47.40;;;44.50;;
31808;SDS011;18379;48.208;-1.518;2022-07-10T22:13:54;47.13;;;44.00;;
31808;SDS011;18379;48.208;-1.518;2022-07-10T22:18:55;48.43;;;45.23;;
31808;SDS011;18379;48.208;-1.518;2022-07-10T22:23:55;46.10;;;43.20;;
31808;SDS011;18379;48.208;-1.518;2022-07-10T22:28:56;44.97;;;42.23;;
31808;SDS011;18379;48.208;-1.518;2022-07-10T22:33:57;44.20;;;41.70;;
31808;SDS011;18379;48.208;-1.518;2022-07-10T22:38:58;45.20;;;42.47;;
31808;SDS011;18379;48.208;-1.518;2022-07-10T22:43:59;44.17;;;41.67;;
31808;SDS011;18379;48.208;-1.518;2022-07-10T22:49:00;44.73;;;42.03;;
31808;SDS011;18379;48.208;-1.518;2022-07-10T22:54:01;44.67;;;41.90;;
31808;SDS011;18379;48.208;-1.518;2022-07-10T22:59:02;44.33;;;41.70;;
31808;SDS011;18379;48.208;-1.518;2022-07-10T23:04:03;45.10;;;42.50;;
31808;SDS011;18379;48.208;-1.518;2022-07-10T23:09:04;44.50;;;41.90;;
31808;SDS011;18379;48.208;-1.518;2022-07-10T23:14:05;43.93;;;41.40;;
31808;SDS011;18379;48.208;-1.518;2022-07-10T23:19:06;43.80;;;41.40;;
31808;SDS011;18379;48.208;-1.518;2022-07-10T23:24:07;44.43;;;41.83;;
31808;SDS011;18379;48.208;-1.518;2022-07-10T23:29:07;44.20;;;41.47;;
31808;SDS011;18379;48.208;-1.518;2022-07-10T23:34:08;44.50;;;41.87;;
31808;SDS011;18379;48.208;-1.518;2022-07-10T23:39:09;44.90;;;42.00;;
31808;SDS011;18379;48.208;-1.518;2022-07-10T23:44:10;45.83;;;42.93;;
31808;SDS011;18379;48.208;-1.518;2022-07-10T23:49:10;45.73;;;42.97;;
31808;SDS011;18379;48.208;-1.518;2022-07-10T23:54:30;43.57;;;41.07;;
31808;SDS011;18379;48.208;-1.518;2022-07-10T23:59:30;43.30;;;40.70;;
